sensor_id;sensor_type;location;lat;lon;timestamp;pressure;altitude;pressure_sealevel;temperature;humidity
4767;BME280;2397;53.576;9.746;2023-02-22T00:00:41;101627.53;;;7.07;100.00
4767;BME280;2397;53.576;9.746;2023-02-22T00:05:37;101619.38;;;7.17;100.00
4767;BME280;2397;53.576;9.746;2023-02-22T00:08:06;101617.66;;;7.17;100.00
4767;BME280;2397;53.576;9.746;2023-02-22T00:10:34;101621.03;;;7.16;100.00
4767;BME280;2397;53.576;9.746;2023-02-22T00:13:05;101617.53;;;7.14;100.00
4767;BME280;2397;53.576;9.746;2023-02-22T00:15:33;101613.84;;;7.08;100.00
4767;BME280;2397;53.576;9.746;2023-02-22T00:18:01;101613.75;;;7.06;100.00
4767;BME280;2397;53.576;9.746;2023-02-22T00:20:27;101619.81;;;7.07;100.00
4767;BME280;2397;53.576;9.746;2023-02-22T00:22:54;101616.97;;;7.00;100.00
4767;BME280;2397;53.576;9.746;2023-02-22T00:25:23;101619.56;;;7.00;100.00
4767;BME280;2397;53.576;9.746;2023-02-22T00:27:50;101617.84;;;7.01;100.00
4767;BME280;2397;53.576;9.746;2023-02-22T00:30:22;101624.16;;;7.08;100.00
4767;BME280;2397;53.576;9.746;2023-02-22T00:32:49;101613.97;;;7.11;100.00
4767;BME280;2397;53.576;9.746;2023-02-22T00:35:17;101613.13;;;7.12;100.00
4767;BME280;2397;53.576;9.746;2023-02-22T00:37:50;101608.81;;;7.11;100.00
4767;BME280;2397;53.576;9.746;2023-02-22T00:40:19;101598.53;;;7.11;100.00
4767;BME280;2397;53.576;9.746;2023-02-22T00:42:45;101603.66;;;7.11;100.00
4767;BME280;2397;53.576;9.746;2023-02-22T00:45:15;101607.84;;;7.09;100.00
4767;BME280;2397;53.576;9.746;2023-02-22T00:47:41;101609.50;;;7.07;100.00
4767;BME280;2397;53.576;9.746;2023-02-22T00:50:08;101605.28;;;7.09;100.00
4767;BME280;2397;53.576;9.746;2023-02-22T00:52:36;101610.56;;;7.12;100.00
4767;BME280;2397;53.576;9.746;2023-02-22T00:55:05;101603.78;;;7.14;100.00
4767;BME280;2397;53.576;9.746;2023-02-22T00:57:32;101605.75;;;7.19;100.00
4767;BME280;2397;53.576;9.746;2023-02-22T01:00:04;101604.16;;;7.23;100.00
4767;BME280;2397;53.576;9.746;2023-02-22T01:02:38;101598.09;;;7.21;100.00
4767;BME280;2397;53.576;9.746;2023-02-22T01:05:07;101606.69;;;7.21;100.00
4767;BME280;2397;53.576;9.746;2023-02-22T01:07:33;101592.09;;;7.22;100.00
4767;BME280;2397;53.576;9.746;2023-02-22T01:10:01;101590.22;;;7.18;100.00
4767;BME280;2397;53.576;9.746;2023-02-22T01:12:28;101600.38;;;7.15;100.00
4767;BME280;2397;53.576;9.746;2023-02-22T01:14:55;101598.66;;;7.14;100.00
4767;BME280;2397;53.576;9.746;2023-02-22T01:17:24;101599.69;;;7.19;100.00
4767;BME280;2397;53.576;9.746;2023-02-22T01:19:51;101605.94;;;7.24;100.00
4767;BME280;2397;53.576;9.746;2023-02-22T01:22:20;101600.66;;;7.21;100.00
4767;BME280;2397;53.576;9.746;2023-02-22T01:24:48;101595.81;;;7.29;100.00
4767;BME280;2397;53.576;9.746;2023-02-22T01:27:14;101599.19;;;7.28;100.00
4767;BME280;2397;53.576;9.746;2023-02-22T01:29:41;101600.00;;;7.27;100.00
4767;BME280;2397;53.576;9.746;2023-02-22T01:32:08;101591.28;;;7.23;100.00
4767;BME280;2397;53.576;9.746;2023-02-22T01:34:34;101593.00;;;7.23;100.00
4767;BME280;2397;53.576;9.746;2023-02-22T01:37:01;101589.59;;;7.24;100.00
4767;BME280;2397;53.576;9.746;2023-02-22T01:39:27;101583.75;;;7.28;100.00
4767;BME280;2397;53.576;9.746;2023-02-22T01:41:53;101579.28;;;7.24;100.00
4767;BME280;2397;53.576;9.746;2023-02-22T01:44:30;101584.50;;;7.25;100.00
4767;BME280;2397;53.576;9.746;2023-02-22T01:46:58;101580.19;;;7.24;100.00
4767;BME280;2397;53.576;9.746;2023-02-22T01:49:30;101581.78;;;7.22;100.00
4767;BME280;2397;53.576;9.746;2023-02-22T01:52:01;101576.53;;;7.19;100.00
4767;BME280;2397;53.576;9.746;2023-02-22T01:54:32;101577.22;;;7.15;100.00
4767;BME280;2397;53.576;9.746;2023-02-22T02:00:18;101569.59;;;7.18;100.00
4767;BME280;2397;53.576;9.746;2023-02-22T02:03:08;101567.63;;;7.11;100.00
4767;BME280;2397;53.576;9.746;2023-02-22T02:05:37;101565.81;;;7.08;100.00
4767;BME280;2397;53.576;9.746;2023-02-22T02:08:16;101566.78;;;7.12;100.00
4767;BME280;2397;53.576;9.746;2023-02-22T02:10:47;101568.56;;;7.13;100.00
4767;BME280;2397;53.576;9.746;2023-02-22T02:13:14;101566.84;;;7.13;100.00
4767;BME280;2397;53.576;9.746;2023-02-22T02:15:41;101570.19;;;7.11;100.00
4767;BME280;2397;53.576;9.746;2023-02-22T02:18:10;101565.97;;;7.13;100.00
4767;BME280;2397;53.576;9.746;2023-02-22T02:21:00;101559.25;;;7.16;100.00
4767;BME280;2397;53.576;9.746;2023-02-22T02:32:53;101548.53;;;7.06;100.00
4767;BME280;2397;53.576;9.746;2023-02-22T02:41:12;101546.75;;;7.04;100.00
4767;BME280;2397;53.576;9.746;2023-02-22T02:46:55;101542.63;;;7.08;100.00
4767;BME280;2397;53.576;9.746;2023-02-22T02:49:39;101538.22;;;7.06;100.00
4767;BME280;2397;53.576;9.746;2023-02-22T02:52:10;101537.34;;;7.05;100.00
4767;BME280;2397;53.576;9.746;2023-02-22T02:54:40;101528.94;;;7.09;100.00
4767;BME280;2397;53.576;9.746;2023-02-22T02:57:07;101521.91;;;7.05;100.00
4767;BME280;2397;53.576;9.746;2023-02-22T02:59:36;101519.41;;;7.07;100.00
4767;BME280;2397;53.576;9.746;2023-02-22T03:02:19;101523.03;;;7.12;100.00
4767;BME280;2397;53.576;9.746;2023-02-22T03:10:42;101524.66;;;7.10;100.00
4767;BME280;2397;53.576;9.746;2023-02-22T03:13:22;101515.13;;;7.07;100.00
4767;BME280;2397;53.576;9.746;2023-02-22T03:16:20;101512.59;;;7.09;100.00
4767;BME280;2397;53.576;9.746;2023-02-22T03:21:48;101499.78;;;7.10;100.00
4767;BME280;2397;53.576;9.746;2023-02-22T03:26:51;101500.47;;;7.06;100.00
4767;BME280;2397;53.576;9.746;2023-02-22T03:29:21;101496.16;;;7.05;100.00
4767;BME280;2397;53.576;9.746;2023-02-22T03:31:53;101503.84;;;7.03;100.00
4767;BME280;2397;53.576;9.746;2023-02-22T03:34:34;101497.09;;;7.07;100.00
4767;BME280;2397;53.576;9.746;2023-02-22T03:37:25;101506.53;;;7.07;100.00
4767;BME280;2397;53.576;9.746;2023-02-22T03:39:54;101506.41;;;7.03;100.00
4767;BME280;2397;53.576;9.746;2023-02-22T03:42:30;101497.84;;;7.04;100.00
4767;BME280;2397;53.576;9.746;2023-02-22T03:44:59;101503.78;;;7.02;100.00
4767;BME280;2397;53.576;9.746;2023-02-22T03:47:33;101507.38;;;7.07;100.00
4767;BME280;2397;53.576;9.746;2023-02-22T03:50:10;101506.59;;;7.08;100.00
4767;BME280;2397;53.576;9.746;2023-02-22T03:52:41;101503.94;;;7.07;100.00
4767;BME280;2397;53.576;9.746;2023-02-22T03:55:10;101500.47;;;7.06;100.00
4767;BME280;2397;53.576;9.746;2023-02-22T03:57:40;101506.41;;;7.03;100.00
4767;BME280;2397;53.576;9.746;2023-02-22T04:00:10;101501.25;;;7.03;100.00
4767;BME280;2397;53.576;9.746;2023-02-22T04:02:37;101509.03;;;7.05;100.00
4767;BME280;2397;53.576;9.746;2023-02-22T04:05:04;101495.22;;;7.03;100.00
4767;BME280;2397;53.576;9.746;2023-02-22T04:07:30;101498.81;;;7.07;100.00
4767;BME280;2397;53.576;9.746;2023-02-22T04:09:57;101505.63;;;7.06;100.00
4767;BME280;2397;53.576;9.746;2023-02-22T04:12:23;101499.56;;;7.04;100.00
4767;BME280;2397;53.576;9.746;2023-02-22T04:14:49;101503.94;;;7.07;100.00
4767;BME280;2397;53.576;9.746;2023-02-22T04:17:16;101509.09;;;7.07;100.00
4767;BME280;2397;53.576;9.746;2023-02-22T04:19:42;101503.94;;;7.07;100.00
4767;BME280;2397;53.576;9.746;2023-02-22T04:22:11;101497.16;;;7.09;100.00
4767;BME280;2397;53.576;9.746;2023-02-22T04:24:37;101505.44;;;7.01;100.00
4767;BME280;2397;53.576;9.746;2023-02-22T04:27:03;101498.69;;;7.03;100.00
4767;BME280;2397;53.576;9.746;2023-02-22T04:29:30;101498.44;;;6.97;100.00
4767;BME280;2397;53.576;9.746;2023-02-22T04:31:56;101495.09;;;7.00;100.00
4767;BME280;2397;53.576;9.746;2023-02-22T04:34:22;101506.00;;;6.94;100.00
4767;BME280;2397;53.576;9.746;2023-02-22T04:36:49;101496.69;;;6.96;100.00
4767;BME280;2397;53.576;9.746;2023-02-22T04:39:16;101492.28;;;6.94;100.00
4767;BME280;2397;53.576;9.746;2023-02-22T04:41:42;101500.00;;;6.94;100.00
4767;BME280;2397;53.576;9.746;2023-02-22T04:44:08;101497.41;;;6.94;100.00
4767;BME280;2397;53.576;9.746;2023-02-22T04:46:35;101495.47;;;6.88;100.00
4767;BME280;2397;53.576;9.746;2023-02-22T04:49:01;101491.28;;;6.90;100.00
4767;BME280;2397;53.576;9.746;2023-02-22T04:51:28;101493.91;;;6.92;100.00
4767;BME280;2397;53.576;9.746;2023-02-22T04:53:54;101498.28;;;6.94;100.00
4767;BME280;2397;53.576;9.746;2023-02-22T04:56:21;101495.88;;;6.97;100.00
4767;BME280;2397;53.576;9.746;2023-02-22T04:58:48;101492.50;;;7.00;100.00
4767;BME280;2397;53.576;9.746;2023-02-22T05:01:15;101494.22;;;6.99;100.00
4767;BME280;2397;53.576;9.746;2023-02-22T05:03:42;101488.00;;;6.94;100.00
4767;BME280;2397;53.576;9.746;2023-02-22T05:06:09;101494.78;;;6.92;100.00
4767;BME280;2397;53.576;9.746;2023-02-22T05:08:37;101493.03;;;6.91;100.00
4767;BME280;2397;53.576;9.746;2023-02-22T05:11:04;101492.91;;;6.88;100.00
4767;BME280;2397;53.576;9.746;2023-02-22T05:13:30;101493.97;;;6.93;100.00
4767;BME280;2397;53.576;9.746;2023-02-22T05:15:57;101485.50;;;6.96;100.00
4767;BME280;2397;53.576;9.746;2023-02-22T05:18:23;101488.00;;;6.94;100.00
4767;BME280;2397;53.576;9.746;2023-02-22T05:20:50;101491.53;;;6.96;100.00
4767;BME280;2397;53.576;9.746;2023-02-22T05:23:16;101488.00;;;6.94;100.00
4767;BME280;2397;53.576;9.746;2023-02-22T05:25:42;101496.69;;;6.96;100.00
4767;BME280;2397;53.576;9.746;2023-02-22T05:28:12;101498.44;;;6.97;100.00
4767;BME280;2397;53.576;9.746;2023-02-22T05:30:39;101498.38;;;6.96;100.00
4767;BME280;2397;53.576;9.746;2023-02-22T05:33:06;101495.94;;;6.99;100.00
4767;BME280;2397;53.576;9.746;2023-02-22T05:35:33;101493.34;;;6.99;100.00
4767;BME280;2397;53.576;9.746;2023-02-22T05:37:59;101489.00;;;6.98;100.00
4767;BME280;2397;53.576;9.746;2023-02-22T05:40:28;101488.94;;;6.96;100.00
4767;BME280;2397;53.576;9.746;2023-02-22T05:42:55;101485.56;;;6.97;100.00
4767;BME280;2397;53.576;9.746;2023-02-22T05:45:25;101483.25;;;7.03;100.00
4767;BME280;2397;53.576;9.746;2023-02-22T05:47:52;101480.09;;;7.11;100.00
4767;BME280;2397;53.576;9.746;2023-02-22T05:50:20;101478.69;;;7.19;100.00
4767;BME280;2397;53.576;9.746;2023-02-22T05:52:47;101479.56;;;7.19;100.00
4767;BME280;2397;53.576;9.746;2023-02-22T05:55:15;101465.75;;;7.17;100.00
4767;BME280;2397;53.576;9.746;2023-02-22T05:57:43;101475.81;;;7.11;100.00
4767;BME280;2397;53.576;9.746;2023-02-22T06:00:13;101472.09;;;7.04;100.00
4767;BME280;2397;53.576;9.746;2023-02-22T06:02:41;101470.31;;;7.02;100.00
4767;BME280;2397;53.576;9.746;2023-02-22T06:05:07;101473.63;;;6.99;100.00
4767;BME280;2397;53.576;9.746;2023-02-22T06:07:34;101468.41;;;6.98;100.00
4767;BME280;2397;53.576;9.746;2023-02-22T06:10:00;101474.44;;;6.98;100.00
4767;BME280;2397;53.576;9.746;2023-02-22T06:12:26;101476.31;;;7.02;100.00
4767;BME280;2397;53.576;9.746;2023-02-22T06:14:53;101479.75;;;7.03;100.00
4767;BME280;2397;53.576;9.746;2023-02-22T06:17:19;101476.31;;;7.02;100.00
4767;BME280;2397;53.576;9.746;2023-02-22T06:19:46;101477.31;;;7.06;100.00
4767;BME280;2397;53.576;9.746;2023-02-22T06:22:16;101478.97;;;7.04;100.00
4767;BME280;2397;53.576;9.746;2023-02-22T06:24:43;101481.47;;;7.02;100.00
4767;BME280;2397;53.576;9.746;2023-02-22T06:27:09;101478.09;;;7.03;100.00
4767;BME280;2397;53.576;9.746;2023-02-22T06:29:36;101475.50;;;7.03;100.00
4767;BME280;2397;53.576;9.746;2023-02-22T06:32:03;101473.88;;;7.06;100.00
4767;BME280;2397;53.576;9.746;2023-02-22T06:34:29;101478.31;;;7.10;100.00
4767;BME280;2397;53.576;9.746;2023-02-22T06:36:56;101475.94;;;7.14;100.00
4767;BME280;2397;53.576;9.746;2023-02-22T06:39:25;101478.44;;;7.13;100.00
4767;BME280;2397;53.576;9.746;2023-02-22T06:41:51;101486.16;;;7.13;100.00
4767;BME280;2397;53.576;9.746;2023-02-22T06:44:20;101476.75;;;7.13;100.00
4767;BME280;2397;53.576;9.746;2023-02-22T06:46:48;101483.72;;;7.16;100.00
4767;BME280;2397;53.576;9.746;2023-02-22T06:49:17;101482.66;;;7.11;100.00
4767;BME280;2397;53.576;9.746;2023-02-22T06:51:45;101480.97;;;7.11;100.00
4767;BME280;2397;53.576;9.746;2023-02-22T06:54:12;101481.06;;;7.14;100.00
4767;BME280;2397;53.576;9.746;2023-02-22T06:56:38;101490.56;;;7.15;100.00
4767;BME280;2397;53.576;9.746;2023-02-22T06:59:04;101484.56;;;7.16;100.00
4767;BME280;2397;53.576;9.746;2023-02-22T07:01:31;101483.72;;;7.16;100.00
4767;BME280;2397;53.576;9.746;2023-02-22T07:03:57;101482.06;;;7.18;100.00
4767;BME280;2397;53.576;9.746;2023-02-22T07:06:24;101478.56;;;7.16;100.00
4767;BME280;2397;53.576;9.746;2023-02-22T07:08:50;101478.50;;;7.14;100.00
4767;BME280;2397;53.576;9.746;2023-02-22T07:11:16;101476.91;;;7.18;100.00
4767;BME280;2397;53.576;9.746;2023-02-22T07:13:43;101474.59;;;7.24;100.00
4767;BME280;2397;53.576;9.746;2023-02-22T07:16:10;101477.28;;;7.27;100.00
4767;BME280;2397;53.576;9.746;2023-02-22T07:18:36;101476.44;;;7.28;100.00
4767;BME280;2397;53.576;9.746;2023-02-22T07:21:04;101474.66;;;7.26;100.00
4767;BME280;2397;53.576;9.746;2023-02-22T07:23:30;101468.50;;;7.22;100.00
4767;BME280;2397;53.576;9.746;2023-02-22T07:25:59;101477.28;;;7.27;100.00
4767;BME280;2397;53.576;9.746;2023-02-22T07:28:26;101471.19;;;7.25;100.00
4767;BME280;2397;53.576;9.746;2023-02-22T07:30:52;101471.38;;;7.30;100.00
4767;BME280;2397;53.576;9.746;2023-02-22T07:33:19;101472.19;;;7.29;100.00
4767;BME280;2397;53.576;9.746;2023-02-22T07:35:47;101468.03;;;7.32;100.00
4767;BME280;2397;53.576;9.746;2023-02-22T07:38:16;101471.56;;;7.34;100.00
4767;BME280;2397;53.576;9.746;2023-02-22T07:40:43;101471.56;;;7.34;100.00
4767;BME280;2397;53.576;9.746;2023-02-22T07:43:21;101465.50;;;7.34;100.00
4767;BME280;2397;53.576;9.746;2023-02-22T07:45:49;101466.41;;;7.34;100.00
4767;BME280;2397;53.576;9.746;2023-02-22T07:48:17;101456.28;;;7.39;100.00
4767;BME280;2397;53.576;9.746;2023-02-22T07:50:44;101458.81;;;7.37;100.00
4767;BME280;2397;53.576;9.746;2023-02-22T07:53:13;101464.06;;;7.41;100.00
4767;BME280;2397;53.576;9.746;2023-02-22T07:55:40;101459.78;;;7.41;100.00
4767;BME280;2397;53.576;9.746;2023-02-22T07:58:07;101456.34;;;7.41;100.00
4767;BME280;2397;53.576;9.746;2023-02-22T08:00:37;101457.38;;;7.46;100.00
4767;BME280;2397;53.576;9.746;2023-02-22T08:03:09;101453.25;;;7.49;100.00
4767;BME280;2397;53.576;9.746;2023-02-22T08:05:38;101453.34;;;7.52;100.00
4767;BME280;2397;53.576;9.746;2023-02-22T08:08:06;101452.44;;;7.52;100.00
4767;BME280;2397;53.576;9.746;2023-02-22T08:10:34;101445.44;;;7.48;100.00
4767;BME280;2397;53.576;9.746;2023-02-22T08:13:02;101445.50;;;7.49;100.00
4767;BME280;2397;53.576;9.746;2023-02-22T08:15:31;101443.00;;;7.51;100.00
4767;BME280;2397;53.576;9.746;2023-02-22T08:17:59;101443.91;;;7.53;100.00
4767;BME280;2397;53.576;9.746;2023-02-22T08:20:27;101441.38;;;7.54;100.00
4767;BME280;2397;53.576;9.746;2023-02-22T08:22:54;101443.22;;;7.57;100.00
4767;BME280;2397;53.576;9.746;2023-02-22T08:25:24;101443.16;;;7.55;100.00
4767;BME280;2397;53.576;9.746;2023-02-22T08:27:51;101440.75;;;7.60;100.00
4767;BME280;2397;53.576;9.746;2023-02-22T08:30:24;101442.72;;;7.67;100.00
4767;BME280;2397;53.576;9.746;2023-02-22T08:32:50;101448.97;;;7.74;100.00
4767;BME280;2397;53.576;9.746;2023-02-22T08:35:19;101445.75;;;7.80;100.00
4767;BME280;2397;53.576;9.746;2023-02-22T08:37:48;101439.00;;;7.83;100.00
4767;BME280;2397;53.576;9.746;2023-02-22T08:40:18;101441.47;;;7.80;100.00
4767;BME280;2397;53.576;9.746;2023-02-22T08:42:45;101437.09;;;7.78;100.00
4767;BME280;2397;53.576;9.746;2023-02-22T08:45:11;101437.91;;;7.77;100.00
4767;BME280;2397;53.576;9.746;2023-02-22T08:47:39;101432.47;;;7.69;100.00
4767;BME280;2397;53.576;9.746;2023-02-22T08:50:06;101433.50;;;7.74;100.00
4767;BME280;2397;53.576;9.746;2023-02-22T08:52:33;101436.03;;;7.72;100.00
4767;BME280;2397;53.576;9.746;2023-02-22T08:55:00;101435.09;;;7.70;100.00
4767;BME280;2397;53.576;9.746;2023-02-22T08:57:26;101438.44;;;7.68;100.00
4767;BME280;2397;53.576;9.746;2023-02-22T08:59:53;101434.03;;;7.65;100.00
4767;BME280;2397;53.576;9.746;2023-02-22T09:02:20;101444.34;;;7.65;100.00
4767;BME280;2397;53.576;9.746;2023-02-22T09:04:48;101447.06;;;7.68;100.00
4767;BME280;2397;53.576;9.746;2023-02-22T09:07:15;101443.66;;;7.69;100.00
4767;BME280;2397;53.576;9.746;2023-02-22T09:09:42;101443.44;;;7.63;100.00
4767;BME280;2397;53.576;9.746;2023-02-22T09:12:10;101447.78;;;7.64;100.00
4767;BME280;2397;53.576;9.746;2023-02-22T09:14:37;101447.94;;;7.69;100.00
4767;BME280;2397;53.576;9.746;2023-02-22T09:17:03;101446.00;;;7.63;100.00
4767;BME280;2397;53.576;9.746;2023-02-22T09:19:31;101445.91;;;7.60;100.00
4767;BME280;2397;53.576;9.746;2023-02-22T09:21:58;101440.03;;;7.64;100.00
4767;BME280;2397;53.576;9.746;2023-02-22T09:24:27;101442.69;;;7.66;100.00
4767;BME280;2397;53.576;9.746;2023-02-22T09:26:54;101442.50;;;7.61;100.00
4767;BME280;2397;53.576;9.746;2023-02-22T09:29:22;101450.63;;;7.72;100.00
4767;BME280;2397;53.576;9.746;2023-02-22T09:31:51;101432.78;;;7.78;100.00
4767;BME280;2397;53.576;9.746;2023-02-22T09:34:20;101438.22;;;7.86;100.00
4767;BME280;2397;53.576;9.746;2023-02-22T09:36:48;101435.88;;;7.92;100.00
4767;BME280;2397;53.576;9.746;2023-02-22T09:39:16;101439.38;;;7.94;100.00
4767;BME280;2397;53.576;9.746;2023-02-22T09:42:08;101436.84;;;7.96;100.00
4767;BME280;2397;53.576;9.746;2023-02-22T09:44:41;101437.06;;;8.02;100.00
4767;BME280;2397;53.576;9.746;2023-02-22T09:47:15;101435.59;;;8.08;100.00
4767;BME280;2397;53.576;9.746;2023-02-22T09:49:53;101437.78;;;8.22;100.00
4767;BME280;2397;53.576;9.746;2023-02-22T09:52:31;101439.50;;;8.23;100.00
4767;BME280;2397;53.576;9.746;2023-02-22T09:55:08;101436.72;;;8.17;100.00
4767;BME280;2397;53.576;9.746;2023-02-22T09:57:39;101436.88;;;8.21;100.00
4767;BME280;2397;53.576;9.746;2023-02-22T10:03:11;101419.75;;;8.48;100.00
4767;BME280;2397;53.576;9.746;2023-02-22T10:05:46;101421.88;;;8.61;100.00
4767;BME280;2397;53.576;9.746;2023-02-22T10:08:16;101413.81;;;8.77;100.00
4767;BME280;2397;53.576;9.746;2023-02-22T10:10:46;101412.34;;;8.86;100.00
4767;BME280;2397;53.576;9.746;2023-02-22T10:13:50;101403.66;;;8.84;100.00
4767;BME280;2397;53.576;9.746;2023-02-22T10:16:32;101397.72;;;8.86;100.00
4767;BME280;2397;53.576;9.746;2023-02-22T10:19:36;101400.75;;;9.00;100.00
4767;BME280;2397;53.576;9.746;2023-02-22T10:25:07;101389.44;;;8.96;100.00
4767;BME280;2397;53.576;9.746;2023-02-22T10:27:41;101384.63;;;9.09;100.00
4767;BME280;2397;53.576;9.746;2023-02-22T10:30:17;101382.91;;;9.08;100.00
4767;BME280;2397;53.576;9.746;2023-02-22T10:33:11;101374.31;;;9.09;100.00
4767;BME280;2397;53.576;9.746;2023-02-22T10:35:40;101365.88;;;9.14;100.00
4767;BME280;2397;53.576;9.746;2023-02-22T10:38:16;101364.47;;;9.26;100.00
4767;BME280;2397;53.576;9.746;2023-02-22T10:41:00;101357.75;;;9.32;100.00
4767;BME280;2397;53.576;9.746;2023-02-22T10:43:27;101351.72;;;9.32;100.00
4767;BME280;2397;53.576;9.746;2023-02-22T10:45:56;101359.00;;;9.45;100.00
4767;BME280;2397;53.576;9.746;2023-02-22T10:48:27;101347.69;;;9.74;100.00
4767;BME280;2397;53.576;9.746;2023-02-22T10:51:00;101354.31;;;9.96;100.00
4767;BME280;2397;53.576;9.746;2023-02-22T10:53:28;101341.09;;;10.18;100.00
4767;BME280;2397;53.576;9.746;2023-02-22T10:56:17;101332.88;;;10.33;100.00
4767;BME280;2397;53.576;9.746;2023-02-22T10:58:53;101322.63;;;10.38;100.00
4767;BME280;2397;53.576;9.746;2023-02-22T11:01:23;101334.88;;;10.45;100.00
4767;BME280;2397;53.576;9.746;2023-02-22T11:04:12;101324.72;;;10.54;100.00
4767;BME280;2397;53.576;9.746;2023-02-22T11:06:43;101321.34;;;10.57;100.00
4767;BME280;2397;53.576;9.746;2023-02-22T11:09:18;101322.19;;;10.58;100.00
4767;BME280;2397;53.576;9.746;2023-02-22T11:11:49;101314.53;;;10.62;100.00
4767;BME280;2397;53.576;9.746;2023-02-22T11:14:27;101322.28;;;10.61;100.00
4767;BME280;2397;53.576;9.746;2023-02-22T11:16:56;101324.34;;;10.77;100.00
4767;BME280;2397;53.576;9.746;2023-02-22T11:19:26;101318.66;;;10.94;100.00
4767;BME280;2397;53.576;9.746;2023-02-22T11:22:11;101328.09;;;10.90;100.00
4767;BME280;2397;53.576;9.746;2023-02-22T11:24:54;101329.59;;;10.80;100.00
4767;BME280;2397;53.576;9.746;2023-02-22T11:30:05;101320.44;;;10.57;100.00
4767;BME280;2397;53.576;9.746;2023-02-22T11:32:33;101322.00;;;10.48;100.00
4767;BME280;2397;53.576;9.746;2023-02-22T11:38:07;101312.72;;;10.22;100.00
4767;BME280;2397;53.576;9.746;2023-02-22T11:40:34;101310.66;;;10.08;100.00
4767;BME280;2397;53.576;9.746;2023-02-22T11:43:17;101302.78;;;10.03;100.00
4767;BME280;2397;53.576;9.746;2023-02-22T11:46:05;101307.16;;;10.06;100.00
4767;BME280;2397;53.576;9.746;2023-02-22T11:48:35;101300.06;;;9.99;100.00
4767;BME280;2397;53.576;9.746;2023-02-22T11:51:15;101296.72;;;10.03;100.00
4767;BME280;2397;53.576;9.746;2023-02-22T11:54:10;101291.78;;;10.12;100.00
4767;BME280;2397;53.576;9.746;2023-02-22T11:56:44;101285.84;;;10.16;100.00
4767;BME280;2397;53.576;9.746;2023-02-22T11:59:28;101279.13;;;10.23;100.00
4767;BME280;2397;53.576;9.746;2023-02-22T12:04:55;101271.69;;;10.37;100.00
4767;BME280;2397;53.576;9.746;2023-02-22T12:07:43;101269.25;;;10.43;100.00
4767;BME280;2397;53.576;9.746;2023-02-22T12:10:29;101264.16;;;10.48;100.00
4767;BME280;2397;53.576;9.746;2023-02-22T12:13:27;101261.91;;;10.62;100.00
4767;BME280;2397;53.576;9.746;2023-02-22T12:16:07;101263.63;;;10.63;100.00
4767;BME280;2397;53.576;9.746;2023-02-22T12:19:05;101253.34;;;10.66;100.00
4767;BME280;2397;53.576;9.746;2023-02-22T12:21:35;101253.28;;;10.64;100.00
4767;BME280;2397;53.576;9.746;2023-02-22T12:24:08;101248.09;;;10.63;100.00
4767;BME280;2397;53.576;9.746;2023-02-22T12:26:41;101243.69;;;10.57;100.00
4767;BME280;2397;53.576;9.746;2023-02-22T12:29:42;101248.97;;;10.63;100.00
4767;BME280;2397;53.576;9.746;2023-02-22T12:32:15;101246.34;;;10.60;100.00
4767;BME280;2397;53.576;9.746;2023-02-22T12:34:49;101245.41;;;10.58;100.00
4767;BME280;2397;53.576;9.746;2023-02-22T12:37:25;101254.25;;;10.68;100.00
4767;BME280;2397;53.576;9.746;2023-02-22T12:40:08;101247.41;;;10.71;100.00
4767;BME280;2397;53.576;9.746;2023-02-22T12:42:46;101251.88;;;10.79;100.00
4767;BME280;2397;53.576;9.746;2023-02-22T12:45:25;101236.44;;;10.83;100.00
4767;BME280;2397;53.576;9.746;2023-02-22T12:50:45;101243.00;;;11.10;100.00
4767;BME280;2397;53.576;9.746;2023-02-22T12:53:27;101237.03;;;11.14;100.00
4767;BME280;2397;53.576;9.746;2023-02-22T12:56:05;101236.25;;;11.17;100.00
4767;BME280;2397;53.576;9.746;2023-02-22T12:58:50;101240.41;;;11.10;100.00
4767;BME280;2397;53.576;9.746;2023-02-22T13:01:22;101230.75;;;11.01;100.00
4767;BME280;2397;53.576;9.746;2023-02-22T13:03:52;101226.41;;;10.99;100.00
4767;BME280;2397;53.576;9.746;2023-02-22T13:09:28;101226.47;;;11.02;100.00
4767;BME280;2397;53.576;9.746;2023-02-22T13:12:11;101215.41;;;11.11;100.00
4767;BME280;2397;53.576;9.746;2023-02-22T13:17:50;101208.56;;;11.16;100.00
4767;BME280;2397;53.576;9.746;2023-02-22T13:20:30;101213.84;;;11.20;100.00
4767;BME280;2397;53.576;9.746;2023-02-22T13:23:04;101209.53;;;11.19;100.00
4767;BME280;2397;53.576;9.746;2023-02-22T13:28:23;101224.78;;;11.05;100.00
4767;BME280;2397;53.576;9.746;2023-02-22T13:31:40;101215.91;;;10.91;100.00
4767;BME280;2397;53.576;9.746;2023-02-22T13:34:49;101218.06;;;10.71;100.00
4767;BME280;2397;53.576;9.746;2023-02-22T13:43:46;101208.91;;;10.46;100.00
4767;BME280;2397;53.576;9.746;2023-02-22T13:46:54;101206.47;;;10.53;100.00
4767;BME280;2397;53.576;9.746;2023-02-22T13:49:39;101199.63;;;10.54;100.00
4767;BME280;2397;53.576;9.746;2023-02-22T13:52:15;101204.53;;;10.43;100.00
4767;BME280;2397;53.576;9.746;2023-02-22T13:54:45;101197.63;;;10.42;100.00
4767;BME280;2397;53.576;9.746;2023-02-22T13:57:21;101200.28;;;10.45;100.00
4767;BME280;2397;53.576;9.746;2023-02-22T13:59:48;101199.38;;;10.43;100.00
4767;BME280;2397;53.576;9.746;2023-02-22T14:11:00;101200.34;;;10.48;100.00
4767;BME280;2397;53.576;9.746;2023-02-22T14:13:29;101184.72;;;10.44;100.00
4767;BME280;2397;53.576;9.746;2023-02-22T14:18:27;101190.81;;;10.47;100.00
4767;BME280;2397;53.576;9.746;2023-02-22T14:21:06;101195.09;;;10.44;100.00
4767;BME280;2397;53.576;9.746;2023-02-22T14:23:34;101185.63;;;10.46;100.00
4767;BME280;2397;53.576;9.746;2023-02-22T14:28:55;101187.28;;;10.42;100.00
4767;BME280;2397;53.576;9.746;2023-02-22T14:31:26;101181.22;;;10.42;100.00
4767;BME280;2397;53.576;9.746;2023-02-22T14:37:26;101176.13;;;10.46;100.00
4767;BME280;2397;53.576;9.746;2023-02-22T14:42:36;101167.59;;;10.50;100.00
4767;BME280;2397;53.576;9.746;2023-02-22T14:55:57;101159.94;;;10.57;100.00
4767;BME280;2397;53.576;9.746;2023-02-22T14:58:38;101152.91;;;10.49;100.00
4767;BME280;2397;53.576;9.746;2023-02-22T15:01:35;101156.41;;;10.51;100.00
4767;BME280;2397;53.576;9.746;2023-02-22T15:04:27;101148.56;;;10.47;100.00
4767;BME280;2397;53.576;9.746;2023-02-22T15:06:55;101145.03;;;10.45;100.00
4767;BME280;2397;53.576;9.746;2023-02-22T15:09:25;101146.69;;;10.40;100.00